MMLM/LMM METAR and TAF weather

Enter ICAO airport designator
Station Type Date Time Source
MMLM METAR 2022/07/01 00:41 UTC NOAA

MMLM 010041Z 19013KT 10SM FEW120 SCT300 32/18 A2987 RMK 8/063 DSNT CB N


Station Type Date Time Source
MMLM Decoded METAR 2022/07/01 00:41 UTC NOAA

Los Mochis Airport, Mexico (MMLM) 25-41N 109-05W
Jun 30, 2022 - 08:41 PM EDT / 2022.07.01 0041 UTC
Wind: from the S (190 degrees) at 15 MPH (13 KT):0
Visibility: 10 mile(s):0
Sky conditions: partly cloudy
Weather: Cumulonimbus clouds observed
Temperature: 89 F (32 C)
Dew Point: 64 F (18 C)
Relative Humidity: 43%
Pressure (altimeter): 29.87 in. Hg (1011 hPa)
ob: MMLM 010041Z 19013KT 10SM FEW120 SCT300 32/18 A2987 RMK 8/063 DSNT CB N
cycle: 0

Station Type Date Time Source
MMLM TAF 2022/06/30 18:57 UTC NOAA

TAF TAF MMLM 301655Z 3018/0118 13010KT P6SM SCT020
FM302100 24015KT P6SM SCT030 PROB40 0100/0104 5SM TSRA BKN030CB
FM010600 12010KT P6SM BKN100

Example: see airport list